createdAt,value
2018-10-05T00:01:11.677Z,10.60
2018-10-05T00:03:45.789Z,10.60
2018-10-05T00:06:20.113Z,10.60
2018-10-05T00:08:54.581Z,10.60
2018-10-05T00:11:29.266Z,10.20
2018-10-05T00:14:03.190Z,10.20
2018-10-05T00:16:37.314Z,10.40
2018-10-05T00:19:11.450Z,10.50
2018-10-05T00:21:45.857Z,10.50
2018-10-05T00:24:19.952Z,10.50
2018-10-05T00:26:54.050Z,10.50
2018-10-05T00:29:28.299Z,10.50
2018-10-05T00:32:02.393Z,10.30
2018-10-05T00:34:36.478Z,10.30
2018-10-05T00:37:11.057Z,10.40
2018-10-05T00:39:45.455Z,10.20
2018-10-05T00:42:19.580Z,10.20
2018-10-05T00:44:53.634Z,10.20
2018-10-05T00:47:27.801Z,10.30
2018-10-05T00:50:01.958Z,10.20
2018-10-05T00:52:36.109Z,10.10
2018-10-05T00:55:10.196Z,10.00
2018-10-05T00:57:44.250Z,9.80
2018-10-05T01:00:19.217Z,9.80
2018-10-05T01:02:53.997Z,9.70
2018-10-05T01:05:28.077Z,9.70
2018-10-05T01:08:02.121Z,9.80
2018-10-05T01:10:36.233Z,9.80
2018-10-05T01:13:10.299Z,9.80
2018-10-05T01:15:44.661Z,9.70
2018-10-05T01:18:18.928Z,9.70
2018-10-05T01:20:54.019Z,9.60
2018-10-05T01:23:27.934Z,9.60
2018-10-05T01:26:02.165Z,9.60
2018-10-05T01:28:36.270Z,9.50
2018-10-05T01:31:10.585Z,9.60
2018-10-05T01:33:44.498Z,9.60
2018-10-05T01:36:18.793Z,9.50
2018-10-05T01:38:52.943Z,9.70
2018-10-05T01:41:27.306Z,9.70
2018-10-05T01:44:01.626Z,9.60
2018-10-05T01:46:35.836Z,9.70
2018-10-05T01:49:10.020Z,9.70
2018-10-05T01:51:44.441Z,9.90
2018-10-05T01:54:18.813Z,9.70
2018-10-05T01:56:53.218Z,9.40
2018-10-05T01:59:27.371Z,9.70
2018-10-05T02:02:01.942Z,9.70
2018-10-05T02:04:37.074Z,10.00
2018-10-05T02:07:12.274Z,10.00
2018-10-05T02:09:46.449Z,10.00
2018-10-05T02:12:20.621Z,10.00
2018-10-05T02:14:54.829Z,10.10
2018-10-05T02:17:29.050Z,9.90
2018-10-05T02:20:03.944Z,10.00
2018-10-05T02:22:38.374Z,9.90
2018-10-05T02:25:12.805Z,10.00
2018-10-05T02:27:47.141Z,10.00
2018-10-05T02:30:21.075Z,9.90
2018-10-05T02:32:55.304Z,9.20
2018-10-05T02:35:30.428Z,8.70
2018-10-05T02:38:05.563Z,8.70
2018-10-05T02:40:39.809Z,8.80
2018-10-05T02:43:14.886Z,8.50
2018-10-05T02:45:50.096Z,8.70
2018-10-05T02:48:24.142Z,8.70
2018-10-05T02:50:58.228Z,9.10
2018-10-05T02:53:32.285Z,9.10
2018-10-05T02:56:06.538Z,8.90
2018-10-05T02:58:40.615Z,8.80
2018-10-05T03:04:23.797Z,9.20
2018-10-05T03:06:57.796Z,9.30
2018-10-05T03:09:31.841Z,9.30
2018-10-05T03:12:05.862Z,9.30
2018-10-05T03:14:39.788Z,9.30
2018-10-05T03:17:13.900Z,9.30
2018-10-05T03:19:47.874Z,9.40
2018-10-05T03:22:21.986Z,9.30
2018-10-05T03:24:56.091Z,9.30
2018-10-05T03:27:30.274Z,9.30
2018-10-05T03:30:04.376Z,9.30
2018-10-05T03:32:38.354Z,9.30
2018-10-05T03:35:12.492Z,9.30
2018-10-05T03:37:46.693Z,9.30
2018-10-05T03:40:21.531Z,9.10
2018-10-05T03:42:55.685Z,9.10
2018-10-05T03:45:29.722Z,8.60
2018-10-05T03:48:04.626Z,8.60
2018-10-05T03:50:38.743Z,8.60
2018-10-05T03:53:12.854Z,8.50
2018-10-05T03:55:47.011Z,8.60
2018-10-05T03:58:21.879Z,8.80
2018-10-05T04:00:56.018Z,8.80
2018-10-05T04:03:30.161Z,8.80
2018-10-05T04:06:05.040Z,8.80
2018-10-05T04:08:39.089Z,8.80
2018-10-05T04:11:13.195Z,8.80
2018-10-05T04:13:47.229Z,8.80
2018-10-05T04:16:21.261Z,8.80
2018-10-05T04:18:55.357Z,8.80
2018-10-05T04:21:29.477Z,8.70
2018-10-05T04:24:03.582Z,8.70
2018-10-05T04:26:38.398Z,8.70
2018-10-05T04:29:12.501Z,8.70
2018-10-05T04:31:46.641Z,8.70
2018-10-05T04:34:20.806Z,8.40
2018-10-05T04:36:54.868Z,8.50
2018-10-05T04:39:28.906Z,8.60
2018-10-05T04:42:02.873Z,8.50
2018-10-05T04:44:36.913Z,8.50
2018-10-05T04:47:11.109Z,8.10
2018-10-05T04:49:45.315Z,8.00
2018-10-05T04:52:19.972Z,8.10
2018-10-05T04:54:54.058Z,8.10
2018-10-05T04:57:28.943Z,8.30
2018-10-05T05:00:03.087Z,8.20
2018-10-05T05:02:37.286Z,8.20
2018-10-05T05:05:11.387Z,8.30
2018-10-05T05:07:45.473Z,8.30
2018-10-05T05:10:19.655Z,8.10
2018-10-05T05:12:53.677Z,8.20
2018-10-05T05:15:27.867Z,8.20
2018-10-05T05:18:01.899Z,8.30
2018-10-05T05:20:35.793Z,8.10
2018-10-05T05:23:09.815Z,8.20
2018-10-05T05:25:43.861Z,8.20
2018-10-05T05:28:18.025Z,8.30
2018-10-05T05:30:53.088Z,8.20
2018-10-05T05:33:27.315Z,8.20
2018-10-05T05:36:01.448Z,8.10
2018-10-05T05:38:35.599Z,8.00
2018-10-05T05:41:09.737Z,8.10
2018-10-05T05:43:43.845Z,8.00
2018-10-05T05:46:18.742Z,7.40
2018-10-05T05:48:52.650Z,7.40
2018-10-05T05:51:26.746Z,7.40
2018-10-05T05:54:00.891Z,7.60
2018-10-05T05:56:35.695Z,7.50
2018-10-05T05:59:09.921Z,7.40
2018-10-05T06:01:43.969Z,7.70
2018-10-05T06:04:18.103Z,7.70
2018-10-05T06:06:52.226Z,7.90
2018-10-05T06:09:26.228Z,7.70
2018-10-05T06:12:00.285Z,8.00
2018-10-05T06:14:34.224Z,8.10
2018-10-05T06:17:08.271Z,8.30
2018-10-05T06:19:42.361Z,8.40
2018-10-05T06:22:17.367Z,8.40
2018-10-05T06:24:51.250Z,8.40
2018-10-05T06:27:26.111Z,8.50
2018-10-05T06:29:59.989Z,8.50
2018-10-05T06:32:34.213Z,8.60
2018-10-05T06:35:13.070Z,8.70
2018-10-05T06:37:47.950Z,8.90
2018-10-05T06:40:22.034Z,8.80
2018-10-05T06:42:56.892Z,8.80
2018-10-05T06:45:31.006Z,8.80
2018-10-05T06:48:05.103Z,8.70
2018-10-05T06:50:39.263Z,8.80
2018-10-05T06:53:13.420Z,8.90
2018-10-05T06:55:47.619Z,9.00
2018-10-05T06:58:21.799Z,9.10
2018-10-05T07:00:55.758Z,9.00
2018-10-05T07:03:30.609Z,9.10
2018-10-05T07:06:04.653Z,9.10
2018-10-05T07:08:38.722Z,9.10
2018-10-05T07:11:12.778Z,8.80
2018-10-05T07:13:46.734Z,8.70
2018-10-05T07:16:20.757Z,8.80
2018-10-05T07:22:23.827Z,9.00
2018-10-05T07:24:57.978Z,9.30
2018-10-05T07:27:32.177Z,9.30
2018-10-05T07:30:06.255Z,9.50
2018-10-05T07:32:40.347Z,9.60
2018-10-05T07:35:14.478Z,9.80
2018-10-05T07:37:48.492Z,9.80
2018-10-05T07:40:22.464Z,9.90
2018-10-05T07:42:56.602Z,10.10
2018-10-05T07:45:30.667Z,10.30
2018-10-05T07:48:04.788Z,10.40
2018-10-05T07:50:38.851Z,10.40
2018-10-05T07:53:12.915Z,10.40
2018-10-05T07:55:46.966Z,10.50
2018-10-05T07:58:20.950Z,10.70
2018-10-05T08:00:58.616Z,10.80
2018-10-05T08:03:33.593Z,11.10
2018-10-05T08:06:07.639Z,11.30
2018-10-05T08:08:42.133Z,11.50
2018-10-05T08:11:16.472Z,11.60
2018-10-05T08:13:50.541Z,11.80
2018-10-05T08:16:24.855Z,11.90
2018-10-05T08:18:58.887Z,12.10
2018-10-05T08:21:33.374Z,12.30
2018-10-05T08:24:08.454Z,12.70
2018-10-05T08:26:42.928Z,12.70
2018-10-05T08:29:17.256Z,12.40
2018-10-05T08:31:51.334Z,12.40
2018-10-05T08:34:25.559Z,12.50
2018-10-05T08:36:59.904Z,12.60
2018-10-05T08:39:34.080Z,12.60
2018-10-05T08:42:08.193Z,12.60
2018-10-05T08:44:43.658Z,12.80
2018-10-05T08:47:17.721Z,12.80
2018-10-05T08:49:51.933Z,12.90
2018-10-05T08:52:26.194Z,13.00
2018-10-05T08:55:03.591Z,13.10
2018-10-05T08:57:37.736Z,13.20
2018-10-05T09:00:12.161Z,13.30
2018-10-05T09:02:47.231Z,13.90
2018-10-05T09:05:21.429Z,13.90
2018-10-05T09:07:56.634Z,14.00
2018-10-05T09:10:31.607Z,14.30
2018-10-05T09:13:05.820Z,14.20
2018-10-05T09:15:40.266Z,14.30
2018-10-05T09:18:14.778Z,14.40
2018-10-05T09:20:49.138Z,14.50
2018-10-05T09:23:23.514Z,14.50
2018-10-05T09:25:57.694Z,14.60
2018-10-05T09:28:31.763Z,14.70
2018-10-05T09:31:06.070Z,14.80
2018-10-05T09:33:40.481Z,14.90
2018-10-05T09:36:15.318Z,15.10
2018-10-05T09:38:49.702Z,15.10
2018-10-05T09:41:24.566Z,15.10
2018-10-05T09:43:59.979Z,14.90
2018-10-05T09:46:35.298Z,15.00
2018-10-05T09:49:09.581Z,15.00
2018-10-05T09:51:43.836Z,15.10
2018-10-05T09:54:18.093Z,15.30
2018-10-05T09:56:52.222Z,15.30
2018-10-05T09:59:26.788Z,15.50
2018-10-05T10:02:01.722Z,15.60
2018-10-05T10:04:35.694Z,15.80
2018-10-05T10:07:10.247Z,15.80
2018-10-05T10:09:44.696Z,15.80
2018-10-05T10:12:19.095Z,15.80
2018-10-05T10:14:53.301Z,15.90
2018-10-05T10:17:27.659Z,16.00
2018-10-05T10:20:01.663Z,16.10
2018-10-05T10:22:35.802Z,16.20
2018-10-05T10:25:10.548Z,16.50
2018-10-05T10:27:44.679Z,16.50
2018-10-05T10:30:18.944Z,16.60
2018-10-05T10:32:53.083Z,16.50
2018-10-05T10:35:27.315Z,16.60
2018-10-05T10:38:01.683Z,16.80
2018-10-05T10:40:35.732Z,16.80
2018-10-05T10:43:10.124Z,17.00
2018-10-05T10:45:44.228Z,16.90
2018-10-05T10:48:19.215Z,17.00
2018-10-05T10:50:53.302Z,17.00
2018-10-05T10:53:28.515Z,17.00
2018-10-05T10:56:02.665Z,17.00
2018-10-05T10:58:37.080Z,17.20
2018-10-05T11:01:11.339Z,17.20
2018-10-05T11:03:45.412Z,17.20
2018-10-05T11:06:19.578Z,17.30
2018-10-05T11:08:53.838Z,17.50
2018-10-05T11:11:27.948Z,17.40
2018-10-05T11:14:02.214Z,17.50
2018-10-05T11:16:36.510Z,17.50
2018-10-05T11:19:10.610Z,17.70
2018-10-05T11:21:44.815Z,17.70
2018-10-05T11:24:19.101Z,17.70
2018-10-05T11:26:53.504Z,17.70
2018-10-05T11:29:28.319Z,17.80
2018-10-05T11:32:03.211Z,18.00
2018-10-05T11:34:37.550Z,18.00
2018-10-05T11:37:11.602Z,18.00
2018-10-05T11:39:45.853Z,18.10
2018-10-05T11:42:20.326Z,18.30
2018-10-05T11:44:54.496Z,18.30
2018-10-05T11:47:28.790Z,18.40
2018-10-05T11:50:03.133Z,18.30
2018-10-05T11:52:38.299Z,18.50
2018-10-05T11:55:12.952Z,18.60
2018-10-05T11:57:47.135Z,18.50
2018-10-05T12:00:21.446Z,18.60
2018-10-05T12:02:55.575Z,18.80
2018-10-05T12:05:30.217Z,18.60
2018-10-05T12:08:05.418Z,18.60
2018-10-05T12:10:39.833Z,18.60
2018-10-05T12:13:14.066Z,18.50
2018-10-05T12:15:48.290Z,18.50
2018-10-05T12:18:22.919Z,18.70
2018-10-05T12:20:57.140Z,18.80
2018-10-05T12:23:32.042Z,18.90
2018-10-05T12:26:06.170Z,18.90
2018-10-05T12:28:40.379Z,18.80
2018-10-05T12:31:15.310Z,19.10
2018-10-05T12:33:49.325Z,19.10
2018-10-05T12:36:24.073Z,19.40
2018-10-05T12:38:58.291Z,19.40
2018-10-05T12:41:32.404Z,19.50
2018-10-05T12:44:06.509Z,19.60
2018-10-05T12:46:41.214Z,19.70
2018-10-05T12:49:15.332Z,19.70
2018-10-05T12:51:50.185Z,19.80
2018-10-05T12:54:24.893Z,19.70
2018-10-05T12:56:58.931Z,19.60
2018-10-05T12:59:33.018Z,19.80
2018-10-05T13:02:07.238Z,19.80
2018-10-05T13:04:41.380Z,20.00
2018-10-05T13:07:15.515Z,20.10
2018-10-05T13:09:49.445Z,20.20
2018-10-05T13:12:23.598Z,20.40
2018-10-05T13:14:58.333Z,20.50
2018-10-05T13:17:32.386Z,20.50
2018-10-05T13:20:06.346Z,20.30
2018-10-05T13:22:40.345Z,20.40
2018-10-05T13:25:14.465Z,20.50
2018-10-05T13:27:48.635Z,20.50
2018-10-05T13:30:22.823Z,20.70
2018-10-05T13:32:57.026Z,20.70
2018-10-05T13:35:31.134Z,20.80
2018-10-05T13:38:05.083Z,21.10
2018-10-05T13:40:39.267Z,20.80
2018-10-05T13:43:13.258Z,20.90
2018-10-05T13:45:48.104Z,20.50
2018-10-05T13:48:22.149Z,20.50
2018-10-05T13:50:56.336Z,20.90
2018-10-05T13:53:30.449Z,21.20
2018-10-05T13:56:04.529Z,21.20
2018-10-05T13:58:38.652Z,21.10
2018-10-05T14:01:13.694Z,21.20
2018-10-05T14:03:47.831Z,21.20
2018-10-05T14:06:21.782Z,21.30
2018-10-05T14:08:55.998Z,21.50
2018-10-05T14:11:30.154Z,21.40
2018-10-05T14:14:04.279Z,21.40
2018-10-05T14:16:39.115Z,21.40
2018-10-05T14:19:13.397Z,21.30
2018-10-05T14:21:47.417Z,21.50
2018-10-05T14:24:21.529Z,21.50
2018-10-05T14:26:56.364Z,21.40
2018-10-05T14:29:31.069Z,21.50
2018-10-05T14:32:05.185Z,21.50
2018-10-05T14:34:39.347Z,21.60
2018-10-05T14:37:13.368Z,21.70
2018-10-05T14:39:47.360Z,21.70
2018-10-05T14:42:21.437Z,21.80
2018-10-05T14:44:55.442Z,22.00
2018-10-05T14:47:29.607Z,22.20
2018-10-05T14:50:03.647Z,22.10
2018-10-05T14:52:37.730Z,22.30
2018-10-05T14:55:11.705Z,22.30
2018-10-05T14:57:45.644Z,22.30
2018-10-05T15:00:19.591Z,22.30
2018-10-05T15:02:53.567Z,22.30
2018-10-05T15:05:27.778Z,22.30
2018-10-05T15:08:02.712Z,22.40
2018-10-05T15:10:36.798Z,22.40
2018-10-05T15:13:10.735Z,22.30
2018-10-05T15:15:44.918Z,22.20
2018-10-05T15:18:19.024Z,22.00
2018-10-05T15:20:52.967Z,22.10
2018-10-05T15:23:27.158Z,22.00
2018-10-05T15:26:01.054Z,22.30
2018-10-05T15:28:35.251Z,22.10
2018-10-05T15:31:09.416Z,22.20
2018-10-05T15:33:43.537Z,22.30
2018-10-05T15:36:17.543Z,22.20
2018-10-05T15:38:51.695Z,22.10
2018-10-05T15:41:25.702Z,22.20
2018-10-05T15:43:59.805Z,22.00
2018-10-05T15:46:34.062Z,21.80
2018-10-05T15:49:08.133Z,21.50
2018-10-05T15:51:42.061Z,21.30
2018-10-05T15:54:16.194Z,21.30
2018-10-05T15:56:51.059Z,21.30
2018-10-05T15:59:25.780Z,21.10
2018-10-05T16:01:59.912Z,21.10
2018-10-05T16:04:33.981Z,21.00
2018-10-05T16:07:18.739Z,21.10
2018-10-05T16:09:52.697Z,21.10
2018-10-05T16:12:26.689Z,21.10
2018-10-05T16:15:00.828Z,21.10
2018-10-05T16:17:35.531Z,20.80
2018-10-05T16:20:10.387Z,20.60
2018-10-05T16:22:45.171Z,20.50
2018-10-05T16:25:20.030Z,20.40
2018-10-05T16:27:54.064Z,20.40
2018-10-05T16:30:28.246Z,20.30
2018-10-05T16:33:02.229Z,20.20
2018-10-05T16:35:36.355Z,20.10
2018-10-05T16:38:10.398Z,20.10
2018-10-05T16:40:44.490Z,19.70
2018-10-05T16:43:18.582Z,19.40
2018-10-05T16:45:52.676Z,19.50
2018-10-05T16:48:26.859Z,19.20
2018-10-05T16:51:00.927Z,18.80
2018-10-05T16:53:35.015Z,18.70
2018-10-05T16:56:09.904Z,18.20
2018-10-05T16:58:43.967Z,18.20
2018-10-05T17:01:18.157Z,18.10
2018-10-05T17:03:52.415Z,17.90
2018-10-05T17:06:27.285Z,17.90
2018-10-05T17:09:02.116Z,17.80
2018-10-05T17:11:36.221Z,17.70
2018-10-05T17:14:10.240Z,17.50
2018-10-05T17:16:45.163Z,17.40
2018-10-05T17:19:19.163Z,17.30
2018-10-05T17:21:53.274Z,17.30
2018-10-05T17:24:27.439Z,17.30
2018-10-05T17:27:01.523Z,17.30
2018-10-05T17:29:35.545Z,17.00
2018-10-05T17:32:09.692Z,17.10
2018-10-05T17:34:43.722Z,17.20
2018-10-05T17:37:18.566Z,16.80
2018-10-05T17:39:52.602Z,16.80
2018-10-05T17:42:26.515Z,16.80
2018-10-05T17:45:00.476Z,16.80
2018-10-05T17:47:34.486Z,16.90
2018-10-05T17:50:09.450Z,16.80
2018-10-05T17:52:43.542Z,16.80
2018-10-05T17:55:18.427Z,16.60
2018-10-05T17:57:52.582Z,16.60
2018-10-05T18:00:26.686Z,16.60
2018-10-05T18:03:00.846Z,16.20
2018-10-05T18:05:34.959Z,16.10
2018-10-05T18:08:09.089Z,15.90
2018-10-05T18:10:43.233Z,15.80
2018-10-05T18:13:17.398Z,15.80
2018-10-05T18:15:51.525Z,15.90
2018-10-05T18:18:25.624Z,15.90
2018-10-05T18:20:59.725Z,16.10
2018-10-05T18:23:33.754Z,16.10
2018-10-05T18:26:07.779Z,16.20
2018-10-05T18:28:42.601Z,16.20
2018-10-05T18:31:16.709Z,16.20
2018-10-05T18:33:50.808Z,16.20
2018-10-05T18:36:24.886Z,16.20
2018-10-05T18:38:58.866Z,16.10
2018-10-05T18:41:32.922Z,16.10
2018-10-05T18:44:07.152Z,16.10
2018-10-05T18:46:42.003Z,16.00
2018-10-05T18:49:16.840Z,16.00
2018-10-05T18:51:50.956Z,15.90
2018-10-05T18:54:25.030Z,15.90
2018-10-05T18:57:08.962Z,15.90
2018-10-05T18:59:43.063Z,15.90
2018-10-05T19:02:17.238Z,15.80
2018-10-05T19:04:51.374Z,15.80
2018-10-05T19:07:26.243Z,15.80
2018-10-05T19:10:00.281Z,15.70
2018-10-05T19:12:34.370Z,15.70
2018-10-05T19:15:08.468Z,15.60
2018-10-05T19:17:42.566Z,15.40
2018-10-05T19:20:16.657Z,15.40
2018-10-05T19:22:50.744Z,15.40
2018-10-05T19:25:24.874Z,15.40
2018-10-05T19:27:59.601Z,15.30
2018-10-05T19:30:33.713Z,15.30
2018-10-05T19:33:07.813Z,14.80
2018-10-05T19:35:41.899Z,14.60
2018-10-05T19:38:19.756Z,14.90
2018-10-05T19:40:53.823Z,14.90
2018-10-05T19:43:27.870Z,14.90
2018-10-05T19:46:01.856Z,14.80
2018-10-05T19:48:35.954Z,14.80
2018-10-05T19:51:10.723Z,14.90
2018-10-05T19:53:44.801Z,14.90
2018-10-05T19:56:18.841Z,14.80
2018-10-05T19:58:52.928Z,14.80
2018-10-05T20:01:26.940Z,14.70
2018-10-05T20:04:01.049Z,14.70
2018-10-05T20:06:35.163Z,14.80
2018-10-05T20:09:09.319Z,14.80
2018-10-05T20:11:44.045Z,14.80
2018-10-05T20:14:18.101Z,14.80
2018-10-05T20:19:33.043Z,14.70
2018-10-05T20:22:07.164Z,14.60
2018-10-05T20:24:41.223Z,14.40
2018-10-05T20:27:15.587Z,14.30
2018-10-05T20:29:49.714Z,14.50
2018-10-05T20:32:23.826Z,14.20
2018-10-05T20:34:57.961Z,14.40
2018-10-05T20:37:32.286Z,14.40
2018-10-05T20:40:06.128Z,14.40
2018-10-05T20:42:40.122Z,14.10
2018-10-05T20:45:14.798Z,14.40
2018-10-05T20:47:48.879Z,14.40
2018-10-05T20:50:23.003Z,14.30
2018-10-05T20:52:57.095Z,14.30
2018-10-05T20:55:31.218Z,14.40
2018-10-05T20:58:05.890Z,14.20
2018-10-05T21:00:39.974Z,14.10
2018-10-05T21:03:14.010Z,14.10
2018-10-05T21:05:47.961Z,14.20
2018-10-05T21:08:22.869Z,14.20
2018-10-05T21:10:56.879Z,14.10
2018-10-05T21:13:30.852Z,14.10
2018-10-05T21:16:04.979Z,14.10
2018-10-05T21:18:39.136Z,14.00
2018-10-05T21:21:13.309Z,14.00
2018-10-05T21:23:47.438Z,13.90
2018-10-05T21:26:21.590Z,14.00
2018-10-05T21:28:55.738Z,14.00
2018-10-05T21:31:29.853Z,13.80
2018-10-05T21:34:04.575Z,13.70
2018-10-05T21:36:38.672Z,13.70
2018-10-05T21:39:12.743Z,13.80
2018-10-05T21:41:46.726Z,13.80
2018-10-05T21:44:20.715Z,13.80
2018-10-05T21:46:54.870Z,13.40
2018-10-05T21:49:29.060Z,13.40
2018-10-05T21:52:03.165Z,13.00
2018-10-05T21:54:37.100Z,13.20
2018-10-05T21:59:51.275Z,13.30
2018-10-05T22:02:25.441Z,13.40
2018-10-05T22:04:59.560Z,13.40
2018-10-05T22:07:33.742Z,13.50
2018-10-05T22:10:07.928Z,13.30
2018-10-05T22:12:42.030Z,13.30
2018-10-05T22:15:16.017Z,13.40
2018-10-05T22:17:50.189Z,13.30
2018-10-05T22:20:24.357Z,13.30
2018-10-05T22:22:58.285Z,13.30
2018-10-05T22:25:32.240Z,13.30
2018-10-05T22:28:06.118Z,13.30
2018-10-05T22:30:40.311Z,13.20
2018-10-05T22:33:14.444Z,13.20
2018-10-05T22:35:48.705Z,13.30
2018-10-05T22:38:22.897Z,13.30
2018-10-05T22:40:57.123Z,13.20
2018-10-05T22:43:32.008Z,13.30
2018-10-05T22:46:06.074Z,13.20
2018-10-05T22:48:40.201Z,13.20
2018-10-05T22:51:14.246Z,13.10
2018-10-05T22:53:48.317Z,12.90
2018-10-05T22:56:22.355Z,13.00
2018-10-05T22:58:57.190Z,12.40
2018-10-05T23:01:31.278Z,12.40
2018-10-05T23:04:05.414Z,12.60
2018-10-05T23:06:39.527Z,12.80
2018-10-05T23:09:13.625Z,12.70
2018-10-05T23:11:47.815Z,12.70
2018-10-05T23:14:21.968Z,12.80
2018-10-05T23:16:56.073Z,12.70
2018-10-05T23:19:30.164Z,12.60
2018-10-05T23:22:05.027Z,12.20
2018-10-05T23:24:39.114Z,12.10
2018-10-05T23:27:13.991Z,12.10
2018-10-05T23:29:48.080Z,12.00
2018-10-05T23:32:22.189Z,12.20
2018-10-05T23:34:56.289Z,12.10
2018-10-05T23:37:30.197Z,12.30
2018-10-05T23:40:04.226Z,12.40
2018-10-05T23:42:38.327Z,12.50
2018-10-05T23:45:12.385Z,12.50
2018-10-05T23:47:46.467Z,12.60
2018-10-05T23:50:20.554Z,12.50
2018-10-05T23:52:54.681Z,12.40
2018-10-05T23:55:28.839Z,12.50
2018-10-05T23:58:03.017Z,12.40
